sensor_id;sensor_type;location;lat;lon;timestamp;temperature;humidity
25640;DHT22;13497;48.322;16.204;2023-04-07T00:02:19;5.40;86.60
25640;DHT22;13497;48.322;16.204;2023-04-07T00:04:44;5.50;86.50
25640;DHT22;13497;48.322;16.204;2023-04-07T00:07:10;5.50;86.60
25640;DHT22;13497;48.322;16.204;2023-04-07T00:09:36;5.50;87.00
25640;DHT22;13497;48.322;16.204;2023-04-07T00:12:03;5.40;87.00
25640;DHT22;13497;48.322;16.204;2023-04-07T00:14:28;5.40;87.00
25640;DHT22;13497;48.322;16.204;2023-04-07T00:16:54;5.50;87.10
25640;DHT22;13497;48.322;16.204;2023-04-07T00:19:19;5.40;87.20
25640;DHT22;13497;48.322;16.204;2023-04-07T00:21:45;5.40;87.40
25640;DHT22;13497;48.322;16.204;2023-04-07T00:24:11;5.40;87.60
25640;DHT22;13497;48.322;16.204;2023-04-07T00:26:37;5.40;87.40
25640;DHT22;13497;48.322;16.204;2023-04-07T00:29:03;5.40;87.90
25640;DHT22;13497;48.322;16.204;2023-04-07T00:31:28;5.40;88.10
25640;DHT22;13497;48.322;16.204;2023-04-07T00:33:54;5.30;88.30
25640;DHT22;13497;48.322;16.204;2023-04-07T00:36:22;5.40;88.40
25640;DHT22;13497;48.322;16.204;2023-04-07T00:38:47;5.40;88.50
25640;DHT22;13497;48.322;16.204;2023-04-07T00:41:13;5.40;88.50
25640;DHT22;13497;48.322;16.204;2023-04-07T00:43:39;5.40;88.60
25640;DHT22;13497;48.322;16.204;2023-04-07T00:46:05;5.40;88.60
25640;DHT22;13497;48.322;16.204;2023-04-07T00:48:30;5.30;88.50
25640;DHT22;13497;48.322;16.204;2023-04-07T00:50:56;5.30;88.80
25640;DHT22;13497;48.322;16.204;2023-04-07T00:53:22;5.20;89.00
25640;DHT22;13497;48.322;16.204;2023-04-07T00:55:48;5.10;89.10
25640;DHT22;13497;48.322;16.204;2023-04-07T00:58:13;5.10;89.30
25640;DHT22;13497;48.322;16.204;2023-04-07T01:00:53;5.10;89.20
25640;DHT22;13497;48.322;16.204;2023-04-07T01:03:25;5.20;89.30
25640;DHT22;13497;48.322;16.204;2023-04-07T01:05:58;5.30;89.60
25640;DHT22;13497;48.322;16.204;2023-04-07T01:11:24;5.40;89.70
25640;DHT22;13497;48.322;16.204;2023-04-07T01:13:52;5.40;89.80
25640;DHT22;13497;48.322;16.204;2023-04-07T01:18:53;5.40;89.70
25640;DHT22;13497;48.322;16.204;2023-04-07T01:21:20;5.40;89.50
25640;DHT22;13497;48.322;16.204;2023-04-07T01:24:02;5.40;90.10
25640;DHT22;13497;48.322;16.204;2023-04-07T01:26:31;5.40;89.50
25640;DHT22;13497;48.322;16.204;2023-04-07T01:31:46;5.40;89.30
25640;DHT22;13497;48.322;16.204;2023-04-07T01:34:14;5.30;89.40
25640;DHT22;13497;48.322;16.204;2023-04-07T01:36:41;5.30;89.70
25640;DHT22;13497;48.322;16.204;2023-04-07T01:39:08;5.30;90.00
25640;DHT22;13497;48.322;16.204;2023-04-07T01:41:37;5.30;90.00
25640;DHT22;13497;48.322;16.204;2023-04-07T01:44:05;5.30;90.00
25640;DHT22;13497;48.322;16.204;2023-04-07T01:46:33;5.30;90.10
25640;DHT22;13497;48.322;16.204;2023-04-07T01:48:59;5.30;90.10
25640;DHT22;13497;48.322;16.204;2023-04-07T01:51:26;5.30;90.10
25640;DHT22;13497;48.322;16.204;2023-04-07T01:53:53;5.20;90.20
25640;DHT22;13497;48.322;16.204;2023-04-07T01:56:19;5.20;90.30
25640;DHT22;13497;48.322;16.204;2023-04-07T01:58:45;5.30;90.30
25640;DHT22;13497;48.322;16.204;2023-04-07T02:01:11;5.30;90.20
25640;DHT22;13497;48.322;16.204;2023-04-07T02:06:22;5.20;90.30
25640;DHT22;13497;48.322;16.204;2023-04-07T02:08:54;5.20;90.30
25640;DHT22;13497;48.322;16.204;2023-04-07T02:11:23;5.10;90.40
25640;DHT22;13497;48.322;16.204;2023-04-07T02:13:52;5.10;90.50
25640;DHT22;13497;48.322;16.204;2023-04-07T02:16:19;5.10;90.50
25640;DHT22;13497;48.322;16.204;2023-04-07T02:18:46;5.20;90.60
25640;DHT22;13497;48.322;16.204;2023-04-07T02:21:14;5.20;90.50
25640;DHT22;13497;48.322;16.204;2023-04-07T02:23:40;5.30;90.30
25640;DHT22;13497;48.322;16.204;2023-04-07T02:26:06;5.40;90.30
25640;DHT22;13497;48.322;16.204;2023-04-07T02:28:31;5.40;90.30
25640;DHT22;13497;48.322;16.204;2023-04-07T02:30:57;5.40;90.30
25640;DHT22;13497;48.322;16.204;2023-04-07T02:33:23;5.40;90.10
25640;DHT22;13497;48.322;16.204;2023-04-07T02:35:48;5.30;90.20
25640;DHT22;13497;48.322;16.204;2023-04-07T02:38:14;5.30;90.20
25640;DHT22;13497;48.322;16.204;2023-04-07T02:40:40;5.20;90.10
25640;DHT22;13497;48.322;16.204;2023-04-07T02:43:05;5.30;90.00
25640;DHT22;13497;48.322;16.204;2023-04-07T02:45:31;5.30;89.40
25640;DHT22;13497;48.322;16.204;2023-04-07T02:47:57;5.30;89.20
25640;DHT22;13497;48.322;16.204;2023-04-07T02:50:22;5.30;89.20
25640;DHT22;13497;48.322;16.204;2023-04-07T02:52:50;5.30;88.60
25640;DHT22;13497;48.322;16.204;2023-04-07T02:55:16;5.30;88.80
25640;DHT22;13497;48.322;16.204;2023-04-07T02:57:42;5.30;89.00
25640;DHT22;13497;48.322;16.204;2023-04-07T03:00:09;5.30;89.20
25640;DHT22;13497;48.322;16.204;2023-04-07T03:02:35;5.20;89.60
25640;DHT22;13497;48.322;16.204;2023-04-07T03:05:00;5.30;89.70
25640;DHT22;13497;48.322;16.204;2023-04-07T03:07:28;5.30;89.70
25640;DHT22;13497;48.322;16.204;2023-04-07T03:09:56;5.40;89.60
25640;DHT22;13497;48.322;16.204;2023-04-07T03:12:22;5.30;89.70
25640;DHT22;13497;48.322;16.204;2023-04-07T03:14:47;5.30;90.00
25640;DHT22;13497;48.322;16.204;2023-04-07T03:17:13;5.20;90.00
25640;DHT22;13497;48.322;16.204;2023-04-07T03:19:39;5.20;90.10
25640;DHT22;13497;48.322;16.204;2023-04-07T03:22:05;5.20;90.20
25640;DHT22;13497;48.322;16.204;2023-04-07T03:24:31;5.10;90.30
25640;DHT22;13497;48.322;16.204;2023-04-07T03:26:56;5.00;90.50
25640;DHT22;13497;48.322;16.204;2023-04-07T03:29:22;4.90;90.50
25640;DHT22;13497;48.322;16.204;2023-04-07T03:31:48;4.90;90.70
25640;DHT22;13497;48.322;16.204;2023-04-07T03:34:14;4.80;90.70
25640;DHT22;13497;48.322;16.204;2023-04-07T03:36:40;4.70;90.80
25640;DHT22;13497;48.322;16.204;2023-04-07T03:39:05;4.70;90.90
25640;DHT22;13497;48.322;16.204;2023-04-07T03:41:31;4.70;91.00
25640;DHT22;13497;48.322;16.204;2023-04-07T03:43:57;4.60;91.10
25640;DHT22;13497;48.322;16.204;2023-04-07T03:46:22;4.60;91.30
25640;DHT22;13497;48.322;16.204;2023-04-07T03:48:51;4.50;91.50
25640;DHT22;13497;48.322;16.204;2023-04-07T03:51:17;4.50;91.60
25640;DHT22;13497;48.322;16.204;2023-04-07T03:53:42;4.40;91.70
25640;DHT22;13497;48.322;16.204;2023-04-07T03:56:08;4.40;91.80
25640;DHT22;13497;48.322;16.204;2023-04-07T03:58:34;4.30;91.90
25640;DHT22;13497;48.322;16.204;2023-04-07T04:01:00;4.30;92.00
25640;DHT22;13497;48.322;16.204;2023-04-07T04:03:26;4.30;92.10
25640;DHT22;13497;48.322;16.204;2023-04-07T04:05:51;4.30;92.10
25640;DHT22;13497;48.322;16.204;2023-04-07T04:08:17;4.30;92.10
25640;DHT22;13497;48.322;16.204;2023-04-07T04:10:42;4.30;92.20
25640;DHT22;13497;48.322;16.204;2023-04-07T04:13:08;4.30;92.10
25640;DHT22;13497;48.322;16.204;2023-04-07T04:15:34;4.30;92.10
25640;DHT22;13497;48.322;16.204;2023-04-07T04:18:00;4.40;92.10
25640;DHT22;13497;48.322;16.204;2023-04-07T04:20:26;4.50;92.00
25640;DHT22;13497;48.322;16.204;2023-04-07T04:22:51;4.50;91.90
25640;DHT22;13497;48.322;16.204;2023-04-07T04:25:17;4.50;91.90
25640;DHT22;13497;48.322;16.204;2023-04-07T04:27:43;4.50;91.90
25640;DHT22;13497;48.322;16.204;2023-04-07T04:30:09;4.50;91.90
25640;DHT22;13497;48.322;16.204;2023-04-07T04:32:34;4.60;91.90
25640;DHT22;13497;48.322;16.204;2023-04-07T04:35:00;4.60;91.90
25640;DHT22;13497;48.322;16.204;2023-04-07T04:37:26;4.60;92.00
25640;DHT22;13497;48.322;16.204;2023-04-07T04:39:52;4.60;92.30
25640;DHT22;13497;48.322;16.204;2023-04-07T04:42:18;4.60;92.00
25640;DHT22;13497;48.322;16.204;2023-04-07T04:44:43;4.60;92.00
25640;DHT22;13497;48.322;16.204;2023-04-07T04:47:09;4.60;92.10
25640;DHT22;13497;48.322;16.204;2023-04-07T04:49:35;4.50;92.20
25640;DHT22;13497;48.322;16.204;2023-04-07T04:52:01;4.50;92.30
25640;DHT22;13497;48.322;16.204;2023-04-07T04:54:26;4.50;92.40
25640;DHT22;13497;48.322;16.204;2023-04-07T04:56:52;4.50;92.50
25640;DHT22;13497;48.322;16.204;2023-04-07T04:59:18;4.40;92.70
25640;DHT22;13497;48.322;16.204;2023-04-07T05:01:43;4.40;92.60
25640;DHT22;13497;48.322;16.204;2023-04-07T05:04:09;4.50;92.60
25640;DHT22;13497;48.322;16.204;2023-04-07T05:06:35;4.50;92.60
25640;DHT22;13497;48.322;16.204;2023-04-07T05:09:01;4.50;92.70
25640;DHT22;13497;48.322;16.204;2023-04-07T05:11:26;4.50;92.70
25640;DHT22;13497;48.322;16.204;2023-04-07T05:13:52;4.50;92.70
25640;DHT22;13497;48.322;16.204;2023-04-07T05:16:17;4.50;92.70
25640;DHT22;13497;48.322;16.204;2023-04-07T05:18:43;4.50;92.90
25640;DHT22;13497;48.322;16.204;2023-04-07T05:21:11;4.50;92.90
25640;DHT22;13497;48.322;16.204;2023-04-07T05:23:37;4.50;92.90
25640;DHT22;13497;48.322;16.204;2023-04-07T05:26:03;4.60;92.80
25640;DHT22;13497;48.322;16.204;2023-04-07T05:28:28;4.60;92.90
25640;DHT22;13497;48.322;16.204;2023-04-07T05:30:54;4.70;92.80
25640;DHT22;13497;48.322;16.204;2023-04-07T05:33:20;4.70;92.70
25640;DHT22;13497;48.322;16.204;2023-04-07T05:35:46;4.70;92.70
25640;DHT22;13497;48.322;16.204;2023-04-07T05:38:12;4.80;92.70
25640;DHT22;13497;48.322;16.204;2023-04-07T05:40:39;4.90;92.70
25640;DHT22;13497;48.322;16.204;2023-04-07T05:43:05;4.90;92.70
25640;DHT22;13497;48.322;16.204;2023-04-07T05:45:30;5.00;92.70
25640;DHT22;13497;48.322;16.204;2023-04-07T05:47:56;5.00;92.60
25640;DHT22;13497;48.322;16.204;2023-04-07T05:50:22;5.10;92.70
25640;DHT22;13497;48.322;16.204;2023-04-07T05:52:47;5.10;92.70
25640;DHT22;13497;48.322;16.204;2023-04-07T05:55:13;5.20;92.70
25640;DHT22;13497;48.322;16.204;2023-04-07T05:57:39;5.30;92.70
25640;DHT22;13497;48.322;16.204;2023-04-07T06:00:05;5.30;92.70
25640;DHT22;13497;48.322;16.204;2023-04-07T06:02:31;5.30;92.90
25640;DHT22;13497;48.322;16.204;2023-04-07T06:04:56;5.40;92.80
25640;DHT22;13497;48.322;16.204;2023-04-07T06:07:22;5.40;92.80
25640;DHT22;13497;48.322;16.204;2023-04-07T06:09:48;5.50;92.90
25640;DHT22;13497;48.322;16.204;2023-04-07T06:12:13;5.50;92.90
25640;DHT22;13497;48.322;16.204;2023-04-07T06:14:41;5.60;93.00
25640;DHT22;13497;48.322;16.204;2023-04-07T06:17:06;5.70;92.80
25640;DHT22;13497;48.322;16.204;2023-04-07T06:19:32;5.60;92.80
25640;DHT22;13497;48.322;16.204;2023-04-07T06:21:58;5.60;92.70
25640;DHT22;13497;48.322;16.204;2023-04-07T06:24:24;5.70;92.80
25640;DHT22;13497;48.322;16.204;2023-04-07T06:26:53;5.70;92.70
25640;DHT22;13497;48.322;16.204;2023-04-07T06:29:19;5.80;92.80
25640;DHT22;13497;48.322;16.204;2023-04-07T06:31:45;5.90;92.70
25640;DHT22;13497;48.322;16.204;2023-04-07T06:34:10;6.00;92.50
25640;DHT22;13497;48.322;16.204;2023-04-07T06:36:36;6.10;92.40
25640;DHT22;13497;48.322;16.204;2023-04-07T06:39:02;6.20;92.30
25640;DHT22;13497;48.322;16.204;2023-04-07T06:41:28;6.30;92.20
25640;DHT22;13497;48.322;16.204;2023-04-07T06:43:54;6.40;92.10
25640;DHT22;13497;48.322;16.204;2023-04-07T06:46:19;6.40;92.00
25640;DHT22;13497;48.322;16.204;2023-04-07T06:48:45;6.50;92.00
25640;DHT22;13497;48.322;16.204;2023-04-07T06:51:11;6.50;92.10
25640;DHT22;13497;48.322;16.204;2023-04-07T06:53:37;6.50;91.90
25640;DHT22;13497;48.322;16.204;2023-04-07T06:56:07;6.60;91.70
25640;DHT22;13497;48.322;16.204;2023-04-07T06:58:34;6.70;92.00
25640;DHT22;13497;48.322;16.204;2023-04-07T07:01:00;6.80;91.70
25640;DHT22;13497;48.322;16.204;2023-04-07T07:03:27;7.00;91.60
25640;DHT22;13497;48.322;16.204;2023-04-07T07:05:57;7.10;91.30
25640;DHT22;13497;48.322;16.204;2023-04-07T07:08:24;7.20;91.20
25640;DHT22;13497;48.322;16.204;2023-04-07T07:10:50;7.30;91.10
25640;DHT22;13497;48.322;16.204;2023-04-07T07:13:16;7.30;91.10
25640;DHT22;13497;48.322;16.204;2023-04-07T07:15:42;7.50;90.90
25640;DHT22;13497;48.322;16.204;2023-04-07T07:18:08;7.60;90.90
25640;DHT22;13497;48.322;16.204;2023-04-07T07:20:33;7.80;90.70
25640;DHT22;13497;48.322;16.204;2023-04-07T07:22:59;7.90;90.70
25640;DHT22;13497;48.322;16.204;2023-04-07T07:25:24;8.00;90.60
25640;DHT22;13497;48.322;16.204;2023-04-07T07:27:53;8.10;90.30
25640;DHT22;13497;48.322;16.204;2023-04-07T07:30:20;8.30;90.00
25640;DHT22;13497;48.322;16.204;2023-04-07T07:32:46;8.40;90.10
25640;DHT22;13497;48.322;16.204;2023-04-07T07:35:12;8.40;89.10
25640;DHT22;13497;48.322;16.204;2023-04-07T07:37:37;8.40;89.00
25640;DHT22;13497;48.322;16.204;2023-04-07T07:40:03;8.50;89.40
25640;DHT22;13497;48.322;16.204;2023-04-07T07:42:30;8.60;88.70
25640;DHT22;13497;48.322;16.204;2023-04-07T07:44:56;8.70;88.20
25640;DHT22;13497;48.322;16.204;2023-04-07T07:47:22;8.80;87.50
25640;DHT22;13497;48.322;16.204;2023-04-07T07:49:48;8.90;86.90
25640;DHT22;13497;48.322;16.204;2023-04-07T07:52:14;8.80;86.40
25640;DHT22;13497;48.322;16.204;2023-04-07T07:54:40;9.00;86.50
25640;DHT22;13497;48.322;16.204;2023-04-07T07:57:05;9.10;86.00
25640;DHT22;13497;48.322;16.204;2023-04-07T07:59:31;9.00;86.10
25640;DHT22;13497;48.322;16.204;2023-04-07T08:01:57;9.00;86.60
25640;DHT22;13497;48.322;16.204;2023-04-07T08:04:23;9.00;86.60
25640;DHT22;13497;48.322;16.204;2023-04-07T08:06:50;9.00;84.70
25640;DHT22;13497;48.322;16.204;2023-04-07T08:09:17;9.00;85.50
25640;DHT22;13497;48.322;16.204;2023-04-07T08:11:43;9.00;86.20
25640;DHT22;13497;48.322;16.204;2023-04-07T08:14:08;9.10;86.30
25640;DHT22;13497;48.322;16.204;2023-04-07T08:16:34;9.20;86.00
25640;DHT22;13497;48.322;16.204;2023-04-07T08:19:00;9.30;85.50
25640;DHT22;13497;48.322;16.204;2023-04-07T08:21:26;9.40;85.60
25640;DHT22;13497;48.322;16.204;2023-04-07T08:23:53;9.40;85.10
25640;DHT22;13497;48.322;16.204;2023-04-07T08:26:19;9.40;84.60
25640;DHT22;13497;48.322;16.204;2023-04-07T08:28:46;9.30;84.50
25640;DHT22;13497;48.322;16.204;2023-04-07T08:31:13;9.40;84.40
25640;DHT22;13497;48.322;16.204;2023-04-07T08:33:39;9.50;84.40
25640;DHT22;13497;48.322;16.204;2023-04-07T08:36:04;9.50;84.40
25640;DHT22;13497;48.322;16.204;2023-04-07T08:38:30;9.50;84.50
25640;DHT22;13497;48.322;16.204;2023-04-07T08:41:03;9.60;84.40
25640;DHT22;13497;48.322;16.204;2023-04-07T08:43:29;9.70;83.20
25640;DHT22;13497;48.322;16.204;2023-04-07T08:45:56;9.70;83.50
25640;DHT22;13497;48.322;16.204;2023-04-07T08:48:23;9.70;83.00
25640;DHT22;13497;48.322;16.204;2023-04-07T08:50:53;9.80;80.90
25640;DHT22;13497;48.322;16.204;2023-04-07T08:53:25;10.00;80.70
25640;DHT22;13497;48.322;16.204;2023-04-07T08:55:55;10.20;79.90
25640;DHT22;13497;48.322;16.204;2023-04-07T08:58:21;10.40;80.20
25640;DHT22;13497;48.322;16.204;2023-04-07T09:00:47;10.60;78.20
25640;DHT22;13497;48.322;16.204;2023-04-07T09:03:14;10.50;78.30
25640;DHT22;13497;48.322;16.204;2023-04-07T09:05:43;10.40;77.60
25640;DHT22;13497;48.322;16.204;2023-04-07T09:08:09;10.40;76.90
25640;DHT22;13497;48.322;16.204;2023-04-07T09:10:35;10.20;77.10
25640;DHT22;13497;48.322;16.204;2023-04-07T09:13:01;10.30;77.30
25640;DHT22;13497;48.322;16.204;2023-04-07T09:15:30;10.20;76.80
25640;DHT22;13497;48.322;16.204;2023-04-07T09:17:57;10.10;76.70
25640;DHT22;13497;48.322;16.204;2023-04-07T09:20:23;10.20;76.80
25640;DHT22;13497;48.322;16.204;2023-04-07T09:22:50;10.40;76.40
25640;DHT22;13497;48.322;16.204;2023-04-07T09:25:20;10.50;76.20
25640;DHT22;13497;48.322;16.204;2023-04-07T09:27:59;10.80;75.50
25640;DHT22;13497;48.322;16.204;2023-04-07T09:30:26;10.90;74.60
25640;DHT22;13497;48.322;16.204;2023-04-07T09:32:51;11.10;74.30
25640;DHT22;13497;48.322;16.204;2023-04-07T09:35:17;11.00;73.60
25640;DHT22;13497;48.322;16.204;2023-04-07T09:37:43;10.90;74.10
25640;DHT22;13497;48.322;16.204;2023-04-07T09:40:09;10.90;74.30
25640;DHT22;13497;48.322;16.204;2023-04-07T09:42:43;10.80;74.30
25640;DHT22;13497;48.322;16.204;2023-04-07T09:45:10;10.70;73.90
25640;DHT22;13497;48.322;16.204;2023-04-07T09:47:36;10.60;74.60
25640;DHT22;13497;48.322;16.204;2023-04-07T09:50:02;10.60;74.00
25640;DHT22;13497;48.322;16.204;2023-04-07T09:52:51;10.80;73.80
25640;DHT22;13497;48.322;16.204;2023-04-07T09:55:22;10.80;73.20
25640;DHT22;13497;48.322;16.204;2023-04-07T09:57:49;10.70;72.60
25640;DHT22;13497;48.322;16.204;2023-04-07T10:00:16;10.50;72.60
25640;DHT22;13497;48.322;16.204;2023-04-07T10:02:42;10.40;73.80
25640;DHT22;13497;48.322;16.204;2023-04-07T10:05:08;10.30;74.00
25640;DHT22;13497;48.322;16.204;2023-04-07T10:07:34;10.20;74.20
25640;DHT22;13497;48.322;16.204;2023-04-07T10:10:01;10.30;73.60
25640;DHT22;13497;48.322;16.204;2023-04-07T10:12:27;10.30;73.70
25640;DHT22;13497;48.322;16.204;2023-04-07T10:14:53;10.40;73.90
25640;DHT22;13497;48.322;16.204;2023-04-07T10:17:21;10.60;73.40
25640;DHT22;13497;48.322;16.204;2023-04-07T10:19:46;10.80;73.50
25640;DHT22;13497;48.322;16.204;2023-04-07T10:22:13;11.00;73.50
25640;DHT22;13497;48.322;16.204;2023-04-07T10:27:10;10.90;72.60
25640;DHT22;13497;48.322;16.204;2023-04-07T10:29:40;10.80;72.40
25640;DHT22;13497;48.322;16.204;2023-04-07T10:32:07;10.80;72.90
25640;DHT22;13497;48.322;16.204;2023-04-07T10:37:21;11.00;72.20
25640;DHT22;13497;48.322;16.204;2023-04-07T10:39:51;11.00;71.40
25640;DHT22;13497;48.322;16.204;2023-04-07T10:45:02;11.10;72.20
25640;DHT22;13497;48.322;16.204;2023-04-07T10:47:28;11.10;71.20
25640;DHT22;13497;48.322;16.204;2023-04-07T10:52:38;11.00;71.40
25640;DHT22;13497;48.322;16.204;2023-04-07T10:55:29;11.20;71.80
25640;DHT22;13497;48.322;16.204;2023-04-07T10:58:15;11.40;71.70
25640;DHT22;13497;48.322;16.204;2023-04-07T11:00:42;11.50;71.50
25640;DHT22;13497;48.322;16.204;2023-04-07T11:03:12;11.30;71.80
25640;DHT22;13497;48.322;16.204;2023-04-07T11:05:41;11.20;72.20
25640;DHT22;13497;48.322;16.204;2023-04-07T11:08:07;11.10;72.80
25640;DHT22;13497;48.322;16.204;2023-04-07T11:10:33;11.00;73.10
25640;DHT22;13497;48.322;16.204;2023-04-07T11:13:05;10.80;73.60
25640;DHT22;13497;48.322;16.204;2023-04-07T11:15:32;10.90;74.00
25640;DHT22;13497;48.322;16.204;2023-04-07T11:20:43;11.00;73.30
25640;DHT22;13497;48.322;16.204;2023-04-07T11:23:09;10.90;73.50
25640;DHT22;13497;48.322;16.204;2023-04-07T11:25:35;11.00;73.90
25640;DHT22;13497;48.322;16.204;2023-04-07T11:28:03;11.10;73.70
25640;DHT22;13497;48.322;16.204;2023-04-07T11:30:28;11.20;73.40
25640;DHT22;13497;48.322;16.204;2023-04-07T11:32:55;11.10;73.40
25640;DHT22;13497;48.322;16.204;2023-04-07T11:35:22;11.20;74.20
25640;DHT22;13497;48.322;16.204;2023-04-07T11:37:48;11.30;73.40
25640;DHT22;13497;48.322;16.204;2023-04-07T11:40:30;11.50;72.60
25640;DHT22;13497;48.322;16.204;2023-04-07T11:42:59;11.70;72.20
25640;DHT22;13497;48.322;16.204;2023-04-07T11:45:25;11.90;72.10
25640;DHT22;13497;48.322;16.204;2023-04-07T11:47:51;12.00;71.40
25640;DHT22;13497;48.322;16.204;2023-04-07T11:50:37;12.10;72.30
25640;DHT22;13497;48.322;16.204;2023-04-07T11:53:03;12.30;71.20
25640;DHT22;13497;48.322;16.204;2023-04-07T11:55:29;12.20;71.20
25640;DHT22;13497;48.322;16.204;2023-04-07T11:57:55;12.20;71.40
25640;DHT22;13497;48.322;16.204;2023-04-07T12:00:29;12.00;71.20
25640;DHT22;13497;48.322;16.204;2023-04-07T12:02:55;11.80;72.00
25640;DHT22;13497;48.322;16.204;2023-04-07T12:05:20;11.80;72.50
25640;DHT22;13497;48.322;16.204;2023-04-07T12:07:53;11.80;72.60
25640;DHT22;13497;48.322;16.204;2023-04-07T12:10:20;11.80;71.80
25640;DHT22;13497;48.322;16.204;2023-04-07T12:12:46;11.90;71.40
25640;DHT22;13497;48.322;16.204;2023-04-07T12:15:12;11.90;71.30
25640;DHT22;13497;48.322;16.204;2023-04-07T12:17:46;11.70;71.40
25640;DHT22;13497;48.322;16.204;2023-04-07T12:20:14;11.60;71.90
25640;DHT22;13497;48.322;16.204;2023-04-07T12:22:40;11.60;71.70
25640;DHT22;13497;48.322;16.204;2023-04-07T12:25:06;11.70;72.00
25640;DHT22;13497;48.322;16.204;2023-04-07T12:27:32;11.70;72.90
25640;DHT22;13497;48.322;16.204;2023-04-07T12:29:57;11.90;72.10
25640;DHT22;13497;48.322;16.204;2023-04-07T12:32:23;11.90;71.50
25640;DHT22;13497;48.322;16.204;2023-04-07T12:34:52;11.90;71.30
25640;DHT22;13497;48.322;16.204;2023-04-07T12:37:18;12.00;71.50
25640;DHT22;13497;48.322;16.204;2023-04-07T12:39:43;12.20;71.00
25640;DHT22;13497;48.322;16.204;2023-04-07T12:42:09;12.40;71.20
25640;DHT22;13497;48.322;16.204;2023-04-07T12:44:37;12.70;70.30
25640;DHT22;13497;48.322;16.204;2023-04-07T12:47:02;12.80;70.10
25640;DHT22;13497;48.322;16.204;2023-04-07T12:49:28;12.80;69.60
25640;DHT22;13497;48.322;16.204;2023-04-07T12:51:54;12.60;69.20
25640;DHT22;13497;48.322;16.204;2023-04-07T12:54:20;12.50;70.60
25640;DHT22;13497;48.322;16.204;2023-04-07T12:56:46;12.70;70.40
25640;DHT22;13497;48.322;16.204;2023-04-07T12:59:12;12.70;68.50
25640;DHT22;13497;48.322;16.204;2023-04-07T13:01:38;12.50;69.30
25640;DHT22;13497;48.322;16.204;2023-04-07T13:04:04;12.50;68.90
25640;DHT22;13497;48.322;16.204;2023-04-07T13:06:30;12.40;69.40
25640;DHT22;13497;48.322;16.204;2023-04-07T13:08:56;12.30;69.90
25640;DHT22;13497;48.322;16.204;2023-04-07T13:11:22;12.10;69.90
25640;DHT22;13497;48.322;16.204;2023-04-07T13:13:48;11.90;71.00
25640;DHT22;13497;48.322;16.204;2023-04-07T13:16:13;11.80;72.50
25640;DHT22;13497;48.322;16.204;2023-04-07T13:18:39;11.60;73.00
25640;DHT22;13497;48.322;16.204;2023-04-07T13:21:05;11.40;74.00
25640;DHT22;13497;48.322;16.204;2023-04-07T13:23:31;11.40;74.10
25640;DHT22;13497;48.322;16.204;2023-04-07T13:25:57;11.30;74.50
25640;DHT22;13497;48.322;16.204;2023-04-07T13:28:22;11.30;75.00
25640;DHT22;13497;48.322;16.204;2023-04-07T13:30:48;11.40;75.10
25640;DHT22;13497;48.322;16.204;2023-04-07T13:33:14;11.40;75.30
25640;DHT22;13497;48.322;16.204;2023-04-07T13:35:39;11.40;76.00
25640;DHT22;13497;48.322;16.204;2023-04-07T13:38:05;11.40;76.90
25640;DHT22;13497;48.322;16.204;2023-04-07T13:40:31;11.40;77.10
25640;DHT22;13497;48.322;16.204;2023-04-07T13:42:56;11.50;77.10
25640;DHT22;13497;48.322;16.204;2023-04-07T13:45:23;11.50;77.30
25640;DHT22;13497;48.322;16.204;2023-04-07T13:47:48;11.40;77.50
25640;DHT22;13497;48.322;16.204;2023-04-07T13:50:14;11.40;76.80
25640;DHT22;13497;48.322;16.204;2023-04-07T13:52:40;11.40;77.30
25640;DHT22;13497;48.322;16.204;2023-04-07T13:55:06;11.30;77.50
25640;DHT22;13497;48.322;16.204;2023-04-07T13:57:32;11.30;77.90
25640;DHT22;13497;48.322;16.204;2023-04-07T13:59:58;11.20;79.00
25640;DHT22;13497;48.322;16.204;2023-04-07T14:02:25;10.90;79.60
25640;DHT22;13497;48.322;16.204;2023-04-07T14:04:52;10.60;80.30
25640;DHT22;13497;48.322;16.204;2023-04-07T14:07:18;10.60;80.30
25640;DHT22;13497;48.322;16.204;2023-04-07T14:09:43;10.70;80.40
25640;DHT22;13497;48.322;16.204;2023-04-07T14:12:10;10.70;80.20
25640;DHT22;13497;48.322;16.204;2023-04-07T14:14:36;10.80;80.50
25640;DHT22;13497;48.322;16.204;2023-04-07T14:17:02;10.90;81.20
25640;DHT22;13497;48.322;16.204;2023-04-07T14:19:28;10.60;81.90
25640;DHT22;13497;48.322;16.204;2023-04-07T14:21:54;10.60;82.50
25640;DHT22;13497;48.322;16.204;2023-04-07T14:24:20;10.60;82.20
25640;DHT22;13497;48.322;16.204;2023-04-07T14:26:46;10.60;82.50
25640;DHT22;13497;48.322;16.204;2023-04-07T14:29:12;10.70;82.70
25640;DHT22;13497;48.322;16.204;2023-04-07T14:31:38;10.60;82.30
25640;DHT22;13497;48.322;16.204;2023-04-07T14:34:04;10.70;83.40
25640;DHT22;13497;48.322;16.204;2023-04-07T14:36:32;10.60;83.20
25640;DHT22;13497;48.322;16.204;2023-04-07T14:38:58;10.90;82.70
25640;DHT22;13497;48.322;16.204;2023-04-07T14:41:25;11.20;81.80
25640;DHT22;13497;48.322;16.204;2023-04-07T14:43:51;11.50;80.60
25640;DHT22;13497;48.322;16.204;2023-04-07T14:46:24;11.40;80.90
25640;DHT22;13497;48.322;16.204;2023-04-07T14:48:50;11.60;80.50
25640;DHT22;13497;48.322;16.204;2023-04-07T14:51:19;11.70;80.50
25640;DHT22;13497;48.322;16.204;2023-04-07T14:53:46;11.50;79.70
25640;DHT22;13497;48.322;16.204;2023-04-07T14:56:12;11.30;80.10
25640;DHT22;13497;48.322;16.204;2023-04-07T14:58:40;11.30;80.30
25640;DHT22;13497;48.322;16.204;2023-04-07T15:01:06;11.40;80.60
25640;DHT22;13497;48.322;16.204;2023-04-07T15:03:32;11.40;80.00
25640;DHT22;13497;48.322;16.204;2023-04-07T15:05:59;11.40;80.50
25640;DHT22;13497;48.322;16.204;2023-04-07T15:08:25;11.40;80.50
25640;DHT22;13497;48.322;16.204;2023-04-07T15:10:50;11.50;80.10
25640;DHT22;13497;48.322;16.204;2023-04-07T15:13:16;11.50;80.20
25640;DHT22;13497;48.322;16.204;2023-04-07T15:15:41;11.40;79.80
25640;DHT22;13497;48.322;16.204;2023-04-07T15:18:07;11.30;79.50
25640;DHT22;13497;48.322;16.204;2023-04-07T15:20:33;11.20;79.60
25640;DHT22;13497;48.322;16.204;2023-04-07T15:22:58;11.30;79.50
25640;DHT22;13497;48.322;16.204;2023-04-07T15:25:26;11.40;79.20
25640;DHT22;13497;48.322;16.204;2023-04-07T15:27:51;11.40;78.90
25640;DHT22;13497;48.322;16.204;2023-04-07T15:30:17;11.50;79.10
25640;DHT22;13497;48.322;16.204;2023-04-07T15:33:03;11.50;79.10
25640;DHT22;13497;48.322;16.204;2023-04-07T15:35:29;11.50;79.30
25640;DHT22;13497;48.322;16.204;2023-04-07T15:37:55;11.30;80.10
25640;DHT22;13497;48.322;16.204;2023-04-07T15:40:21;11.30;79.00
25640;DHT22;13497;48.322;16.204;2023-04-07T15:42:47;11.20;80.00
25640;DHT22;13497;48.322;16.204;2023-04-07T15:45:13;10.90;81.80
25640;DHT22;13497;48.322;16.204;2023-04-07T15:47:38;10.70;82.80